sensor_id;sensor_type;location;lat;lon;timestamp;pressure;altitude;pressure_sealevel;temperature;humidity
52535;BME280;38443;53.164;5.802;2023-12-29T00:01:57;100811.31;;;8.14;100.00
52535;BME280;38443;53.164;5.802;2023-12-29T00:04:24;100808.63;;;8.14;100.00
52535;BME280;38443;53.164;5.802;2023-12-29T00:06:50;100814.84;;;8.15;100.00
52535;BME280;38443;53.164;5.802;2023-12-29T00:09:15;100805.94;;;8.16;100.00
52535;BME280;38443;53.164;5.802;2023-12-29T00:11:40;100810.38;;;8.15;100.00
52535;BME280;38443;53.164;5.802;2023-12-29T00:14:06;100799.72;;;8.15;100.00
52535;BME280;38443;53.164;5.802;2023-12-29T00:16:31;100791.78;;;8.14;100.00
52535;BME280;38443;53.164;5.802;2023-12-29T00:18:56;100790.88;;;8.13;100.00
52535;BME280;38443;53.164;5.802;2023-12-29T00:21:21;100783.72;;;8.15;100.00
52535;BME280;38443;53.164;5.802;2023-12-29T00:23:47;100784.63;;;8.16;100.00
52535;BME280;38443;53.164;5.802;2023-12-29T00:26:16;100778.44;;;8.14;100.00
52535;BME280;38443;53.164;5.802;2023-12-29T00:28:41;100766.00;;;8.13;100.00
52535;BME280;38443;53.164;5.802;2023-12-29T00:31:06;100757.06;;;8.15;100.00
52535;BME280;38443;53.164;5.802;2023-12-29T00:33:32;100751.69;;;8.17;100.00
52535;BME280;38443;53.164;5.802;2023-12-29T00:35:58;100740.13;;;8.18;100.00
52535;BME280;38443;53.164;5.802;2023-12-29T00:38:23;100728.56;;;8.17;100.00
52535;BME280;38443;53.164;5.802;2023-12-29T00:40:48;100732.97;;;8.20;100.00
52535;BME280;38443;53.164;5.802;2023-12-29T00:43:14;100725.84;;;8.22;100.00
52535;BME280;38443;53.164;5.802;2023-12-29T00:45:39;100717.00;;;8.18;100.00
52535;BME280;38443;53.164;5.802;2023-12-29T00:48:04;100702.75;;;8.19;100.00
52535;BME280;38443;53.164;5.802;2023-12-29T00:50:30;100704.56;;;8.19;100.00
52535;BME280;38443;53.164;5.802;2023-12-29T00:52:55;100691.25;;;8.17;100.00
52535;BME280;38443;53.164;5.802;2023-12-29T00:55:20;100673.50;;;8.18;100.00
52535;BME280;38443;53.164;5.802;2023-12-29T00:57:45;100659.31;;;8.16;100.00
52535;BME280;38443;53.164;5.802;2023-12-29T01:00:12;100650.41;;;8.15;100.00
52535;BME280;38443;53.164;5.802;2023-12-29T01:02:38;100660.25;;;8.13;100.00
52535;BME280;38443;53.164;5.802;2023-12-29T01:05:03;100652.25;;;8.13;100.00
52535;BME280;38443;53.164;5.802;2023-12-29T01:07:29;100644.31;;;8.12;100.00
52535;BME280;38443;53.164;5.802;2023-12-29T01:09:54;100654.91;;;8.13;100.00
52535;BME280;38443;53.164;5.802;2023-12-29T01:12:20;100654.88;;;8.15;100.00
52535;BME280;38443;53.164;5.802;2023-12-29T01:14:45;100652.22;;;8.15;100.00
52535;BME280;38443;53.164;5.802;2023-12-29T01:17:10;100661.97;;;8.16;100.00
52535;BME280;38443;53.164;5.802;2023-12-29T01:19:36;100649.50;;;8.18;100.00
52535;BME280;38443;53.164;5.802;2023-12-29T01:22:01;100649.44;;;8.19;100.00
52535;BME280;38443;53.164;5.802;2023-12-29T01:24:26;100625.41;;;8.21;100.00
52535;BME280;38443;53.164;5.802;2023-12-29T01:26:52;100623.59;;;8.23;100.00
52535;BME280;38443;53.164;5.802;2023-12-29T01:29:17;100620.06;;;8.23;100.00
52535;BME280;38443;53.164;5.802;2023-12-29T01:31:42;100613.91;;;8.19;100.00
52535;BME280;38443;53.164;5.802;2023-12-29T01:34:08;100606.91;;;8.15;100.00
52535;BME280;38443;53.164;5.802;2023-12-29T01:36:33;100593.66;;;8.12;100.00
52535;BME280;38443;53.164;5.802;2023-12-29T01:38:58;100576.75;;;8.11;100.00
52535;BME280;38443;53.164;5.802;2023-12-29T01:41:24;100571.53;;;8.07;100.00
52535;BME280;38443;53.164;5.802;2023-12-29T01:46:25;100561.88;;;8.03;100.00
52535;BME280;38443;53.164;5.802;2023-12-29T01:48:51;100532.56;;;8.01;100.00
52535;BME280;38443;53.164;5.802;2023-12-29T01:51:17;100536.91;;;8.05;100.00
52535;BME280;38443;53.164;5.802;2023-12-29T01:53:44;100532.47;;;8.06;100.00
52535;BME280;38443;53.164;5.802;2023-12-29T01:56:09;100514.84;;;8.00;100.00
52535;BME280;38443;53.164;5.802;2023-12-29T01:58:35;100498.88;;;8.00;100.00
52535;BME280;38443;53.164;5.802;2023-12-29T02:01:01;100487.41;;;7.96;100.00
52535;BME280;38443;53.164;5.802;2023-12-29T02:03:27;100481.22;;;7.94;100.00
52535;BME280;38443;53.164;5.802;2023-12-29T02:05:53;100477.72;;;7.92;100.00
52535;BME280;38443;53.164;5.802;2023-12-29T02:08:19;100462.69;;;7.90;100.00
52535;BME280;38443;53.164;5.802;2023-12-29T02:10:45;100467.25;;;7.85;100.00
52535;BME280;38443;53.164;5.802;2023-12-29T02:13:10;100456.72;;;7.80;100.00
52535;BME280;38443;53.164;5.802;2023-12-29T02:15:36;100439.81;;;7.79;100.00
52535;BME280;38443;53.164;5.802;2023-12-29T02:18:03;100445.09;;;7.83;100.00
52535;BME280;38443;53.164;5.802;2023-12-29T02:20:31;100448.66;;;7.82;100.00
52535;BME280;38443;53.164;5.802;2023-12-29T02:22:56;100450.53;;;7.78;100.00
52535;BME280;38443;53.164;5.802;2023-12-29T02:25:22;100452.28;;;7.79;100.00
52535;BME280;38443;53.164;5.802;2023-12-29T02:28:30;100448.66;;;7.82;100.00
52535;BME280;38443;53.164;5.802;2023-12-29T02:31:00;100455.59;;;7.89;100.00
52535;BME280;38443;53.164;5.802;2023-12-29T02:33:27;100456.53;;;7.88;100.00
52535;BME280;38443;53.164;5.802;2023-12-29T02:35:56;100453.00;;;7.86;100.00
52535;BME280;38443;53.164;5.802;2023-12-29T02:38:22;100465.47;;;7.84;100.00
52535;BME280;38443;53.164;5.802;2023-12-29T02:40:47;100448.59;;;7.85;100.00
52535;BME280;38443;53.164;5.802;2023-12-29T02:43:13;100450.31;;;7.86;100.00
52535;BME280;38443;53.164;5.802;2023-12-29T02:45:38;100450.31;;;7.86;100.00
52535;BME280;38443;53.164;5.802;2023-12-29T02:48:03;100459.31;;;7.82;100.00
52535;BME280;38443;53.164;5.802;2023-12-29T02:50:29;100462.91;;;7.81;100.00
52535;BME280;38443;53.164;5.802;2023-12-29T02:52:54;100458.53;;;7.78;100.00
52535;BME280;38443;53.164;5.802;2023-12-29T02:55:19;100461.28;;;7.73;100.00
52535;BME280;38443;53.164;5.802;2023-12-29T02:57:45;100448.91;;;7.72;100.00
52535;BME280;38443;53.164;5.802;2023-12-29T03:00:10;100459.56;;;7.71;100.00
52535;BME280;38443;53.164;5.802;2023-12-29T03:02:35;100456.91;;;7.71;100.00
52535;BME280;38443;53.164;5.802;2023-12-29T03:05:01;100460.50;;;7.70;100.00
52535;BME280;38443;53.164;5.802;2023-12-29T03:07:27;100472.06;;;7.69;100.00
52535;BME280;38443;53.164;5.802;2023-12-29T03:09:52;100476.44;;;7.71;100.00
52535;BME280;38443;53.164;5.802;2023-12-29T03:12:17;100480.84;;;7.74;100.00
52535;BME280;38443;53.164;5.802;2023-12-29T03:14:44;100476.41;;;7.73;100.00
52535;BME280;38443;53.164;5.802;2023-12-29T03:17:09;100480.00;;;7.72;100.00
52535;BME280;38443;53.164;5.802;2023-12-29T03:19:35;100485.31;;;7.72;100.00
52535;BME280;38443;53.164;5.802;2023-12-29T03:22:01;100492.47;;;7.70;100.00
52535;BME280;38443;53.164;5.802;2023-12-29T03:24:27;100484.50;;;7.68;100.00
52535;BME280;38443;53.164;5.802;2023-12-29T03:26:52;100492.56;;;7.65;100.00
52535;BME280;38443;53.164;5.802;2023-12-29T03:29:18;100491.72;;;7.63;100.00
52535;BME280;38443;53.164;5.802;2023-12-29T03:31:43;100468.69;;;7.62;100.00
52535;BME280;38443;53.164;5.802;2023-12-29T03:34:08;100458.06;;;7.59;100.00
52535;BME280;38443;53.164;5.802;2023-12-29T03:36:33;100453.63;;;7.59;100.00
52535;BME280;38443;53.164;5.802;2023-12-29T03:38:59;100432.38;;;7.58;100.00
52535;BME280;38443;53.164;5.802;2023-12-29T03:41:24;100442.94;;;7.61;100.00
52535;BME280;38443;53.164;5.802;2023-12-29T03:43:50;100443.88;;;7.60;100.00
52535;BME280;38443;53.164;5.802;2023-12-29T03:46:22;100431.47;;;7.57;100.00
52535;BME280;38443;53.164;5.802;2023-12-29T03:48:48;100438.56;;;7.58;100.00
52535;BME280;38443;53.164;5.802;2023-12-29T03:51:14;100420.88;;;7.56;100.00
52535;BME280;38443;53.164;5.802;2023-12-29T03:53:39;100418.09;;;7.61;100.00
52535;BME280;38443;53.164;5.802;2023-12-29T03:56:13;100404.81;;;7.59;100.00
52535;BME280;38443;53.164;5.802;2023-12-29T03:58:39;100388.00;;;7.57;100.00
52535;BME280;38443;53.164;5.802;2023-12-29T04:01:04;100387.13;;;7.56;100.00
52535;BME280;38443;53.164;5.802;2023-12-29T04:03:29;100380.88;;;7.57;100.00
52535;BME280;38443;53.164;5.802;2023-12-29T04:05:54;100367.53;;;7.59;100.00
52535;BME280;38443;53.164;5.802;2023-12-29T04:08:20;100382.59;;;7.60;100.00
52535;BME280;38443;53.164;5.802;2023-12-29T04:10:45;100392.31;;;7.61;100.00
52535;BME280;38443;53.164;5.802;2023-12-29T04:13:10;100370.13;;;7.62;100.00
52535;BME280;38443;53.164;5.802;2023-12-29T04:15:35;100378.97;;;7.63;100.00
52535;BME280;38443;53.164;5.802;2023-12-29T04:18:01;100373.66;;;7.63;100.00
52535;BME280;38443;53.164;5.802;2023-12-29T04:20:26;100376.34;;;7.61;100.00
52535;BME280;38443;53.164;5.802;2023-12-29T04:22:52;100367.50;;;7.61;100.00
52535;BME280;38443;53.164;5.802;2023-12-29T04:25:17;100373.84;;;7.55;100.00
52535;BME280;38443;53.164;5.802;2023-12-29T04:27:42;100369.44;;;7.54;100.00
52535;BME280;38443;53.164;5.802;2023-12-29T04:30:08;100381.00;;;7.53;100.00
52535;BME280;38443;53.164;5.802;2023-12-29T04:32:33;100370.34;;;7.53;100.00
52535;BME280;38443;53.164;5.802;2023-12-29T04:34:58;100379.25;;;7.52;100.00
52535;BME280;38443;53.164;5.802;2023-12-29T04:37:24;100372.09;;;7.54;100.00
52535;BME280;38443;53.164;5.802;2023-12-29T04:39:49;100371.13;;;7.58;100.00
52535;BME280;38443;53.164;5.802;2023-12-29T04:42:14;100365.78;;;7.58;100.00
52535;BME280;38443;53.164;5.802;2023-12-29T04:44:42;100371.13;;;7.58;100.00
52535;BME280;38443;53.164;5.802;2023-12-29T04:47:07;100369.28;;;7.60;100.00
52535;BME280;38443;53.164;5.802;2023-12-29T04:49:33;100380.72;;;7.64;100.00
52535;BME280;38443;53.164;5.802;2023-12-29T04:51:58;100386.84;;;7.67;100.00
52535;BME280;38443;53.164;5.802;2023-12-29T04:54:24;100378.88;;;7.66;100.00
52535;BME280;38443;53.164;5.802;2023-12-29T04:56:49;100379.78;;;7.66;100.00
52535;BME280;38443;53.164;5.802;2023-12-29T04:59:15;100388.78;;;7.62;100.00
52535;BME280;38443;53.164;5.802;2023-12-29T05:01:40;100384.31;;;7.63;100.00
52535;BME280;38443;53.164;5.802;2023-12-29T05:04:06;100396.69;;;7.64;100.00
52535;BME280;38443;53.164;5.802;2023-12-29T05:06:31;100384.34;;;7.61;100.00
52535;BME280;38443;53.164;5.802;2023-12-29T05:08:56;100393.19;;;7.62;100.00
52535;BME280;38443;53.164;5.802;2023-12-29T05:11:22;100398.50;;;7.63;100.00
52535;BME280;38443;53.164;5.802;2023-12-29T05:13:47;100395.00;;;7.61;100.00
52535;BME280;38443;53.164;5.802;2023-12-29T05:16:13;100389.69;;;7.59;100.00
52535;BME280;38443;53.164;5.802;2023-12-29T05:18:38;100390.59;;;7.60;100.00
52535;BME280;38443;53.164;5.802;2023-12-29T05:21:03;100393.25;;;7.60;100.00
52535;BME280;38443;53.164;5.802;2023-12-29T05:23:29;100397.66;;;7.61;100.00
52535;BME280;38443;53.164;5.802;2023-12-29T05:25:54;100395.84;;;7.62;100.00
52535;BME280;38443;53.164;5.802;2023-12-29T05:28:19;100389.63;;;7.63;100.00
52535;BME280;38443;53.164;5.802;2023-12-29T05:30:45;100392.19;;;7.66;100.00
52535;BME280;38443;53.164;5.802;2023-12-29T05:33:10;100386.94;;;7.64;100.00
52535;BME280;38443;53.164;5.802;2023-12-29T05:35:35;100391.38;;;7.64;100.00
52535;BME280;38443;53.164;5.802;2023-12-29T05:38:01;100393.16;;;7.63;100.00
52535;BME280;38443;53.164;5.802;2023-12-29T05:40:26;100406.44;;;7.65;100.00
52535;BME280;38443;53.164;5.802;2023-12-29T05:42:51;100402.94;;;7.63;100.00
52535;BME280;38443;53.164;5.802;2023-12-29T05:45:17;100395.84;;;7.62;100.00
52535;BME280;38443;53.164;5.802;2023-12-29T05:47:43;100403.78;;;7.65;100.00
52535;BME280;38443;53.164;5.802;2023-12-29T05:50:09;100418.81;;;7.67;100.00
52535;BME280;38443;53.164;5.802;2023-12-29T05:52:34;100414.31;;;7.69;100.00
52535;BME280;38443;53.164;5.802;2023-12-29T05:54:59;100416.13;;;7.69;100.00
52535;BME280;38443;53.164;5.802;2023-12-29T05:57:25;100415.16;;;7.71;100.00
52535;BME280;38443;53.164;5.802;2023-12-29T05:59:50;100423.06;;;7.76;100.00
52535;BME280;38443;53.164;5.802;2023-12-29T06:02:15;100418.59;;;7.76;100.00
52535;BME280;38443;53.164;5.802;2023-12-29T06:04:40;100419.50;;;7.75;100.00
52535;BME280;38443;53.164;5.802;2023-12-29T06:07:06;100430.22;;;7.74;100.00
52535;BME280;38443;53.164;5.802;2023-12-29T06:09:31;100423.13;;;7.73;100.00
52535;BME280;38443;53.164;5.802;2023-12-29T06:11:56;100418.75;;;7.70;100.00
52535;BME280;38443;53.164;5.802;2023-12-29T06:14:21;100424.94;;;7.71;100.00
52535;BME280;38443;53.164;5.802;2023-12-29T06:16:47;100429.31;;;7.73;100.00
52535;BME280;38443;53.164;5.802;2023-12-29T06:19:13;100414.16;;;7.75;100.00
52535;BME280;38443;53.164;5.802;2023-12-29T06:21:41;100424.75;;;7.78;100.00
52535;BME280;38443;53.164;5.802;2023-12-29T06:24:08;100426.50;;;7.79;100.00
52535;BME280;38443;53.164;5.802;2023-12-29T06:26:33;100424.78;;;7.77;100.00
52535;BME280;38443;53.164;5.802;2023-12-29T06:28:58;100423.09;;;7.74;100.00
52535;BME280;38443;53.164;5.802;2023-12-29T06:31:24;100437.25;;;7.76;100.00
52535;BME280;38443;53.164;5.802;2023-12-29T06:33:49;100443.41;;;7.78;100.00
52535;BME280;38443;53.164;5.802;2023-12-29T06:36:15;100442.56;;;7.78;100.00
52535;BME280;38443;53.164;5.802;2023-12-29T06:38:40;100446.94;;;7.79;100.00
52535;BME280;38443;53.164;5.802;2023-12-29T06:41:05;100442.56;;;7.78;100.00
52535;BME280;38443;53.164;5.802;2023-12-29T06:43:31;100454.97;;;7.77;100.00
52535;BME280;38443;53.164;5.802;2023-12-29T06:45:56;100444.38;;;7.76;100.00
52535;BME280;38443;53.164;5.802;2023-12-29T06:48:22;100444.31;;;7.77;100.00
52535;BME280;38443;53.164;5.802;2023-12-29T06:50:47;100445.16;;;7.79;100.00
52535;BME280;38443;53.164;5.802;2023-12-29T06:53:12;100448.66;;;7.82;100.00
52535;BME280;38443;53.164;5.802;2023-12-29T06:55:37;100454.03;;;7.80;100.00
52535;BME280;38443;53.164;5.802;2023-12-29T06:58:04;100453.13;;;7.79;100.00
52535;BME280;38443;53.164;5.802;2023-12-29T07:00:29;100453.22;;;7.78;100.00
52535;BME280;38443;53.164;5.802;2023-12-29T07:02:54;100450.56;;;7.76;100.00
52535;BME280;38443;53.164;5.802;2023-12-29T07:05:20;100450.56;;;7.76;100.00
52535;BME280;38443;53.164;5.802;2023-12-29T07:07:45;100461.19;;;7.78;100.00
52535;BME280;38443;53.164;5.802;2023-12-29T07:10:13;100446.97;;;7.77;100.00
52535;BME280;38443;53.164;5.802;2023-12-29T07:12:39;100451.38;;;7.80;100.00
52535;BME280;38443;53.164;5.802;2023-12-29T07:15:04;100450.53;;;7.78;100.00
52535;BME280;38443;53.164;5.802;2023-12-29T07:17:29;100456.78;;;7.75;100.00
52535;BME280;38443;53.164;5.802;2023-12-29T07:19:55;100456.75;;;7.77;100.00
52535;BME280;38443;53.164;5.802;2023-12-29T07:22:20;100462.97;;;7.77;100.00
52535;BME280;38443;53.164;5.802;2023-12-29T07:24:45;100465.59;;;7.79;100.00
52535;BME280;38443;53.164;5.802;2023-12-29T07:27:10;100447.88;;;7.78;100.00
52535;BME280;38443;53.164;5.802;2023-12-29T07:29:36;100465.69;;;7.76;100.00
52535;BME280;38443;53.164;5.802;2023-12-29T07:32:01;100455.06;;;7.74;100.00
52535;BME280;38443;53.164;5.802;2023-12-29T07:34:26;100472.84;;;7.74;100.00
52535;BME280;38443;53.164;5.802;2023-12-29T07:36:52;100473.75;;;7.71;100.00
52535;BME280;38443;53.164;5.802;2023-12-29T07:39:18;100458.78;;;7.67;100.00
52535;BME280;38443;53.164;5.802;2023-12-29T07:41:43;100464.22;;;7.63;100.00
52535;BME280;38443;53.164;5.802;2023-12-29T07:44:12;100464.28;;;7.59;100.00
52535;BME280;38443;53.164;5.802;2023-12-29T07:46:38;100456.34;;;7.58;100.00
52535;BME280;38443;53.164;5.802;2023-12-29T07:49:03;100462.59;;;7.55;100.00
52535;BME280;38443;53.164;5.802;2023-12-29T07:51:29;100466.28;;;7.50;100.00
52535;BME280;38443;53.164;5.802;2023-12-29T07:53:54;100453.91;;;7.47;100.00
52535;BME280;38443;53.164;5.802;2023-12-29T07:56:19;100463.69;;;7.47;100.00
52535;BME280;38443;53.164;5.802;2023-12-29T07:58:44;100456.41;;;7.53;100.00
52535;BME280;38443;53.164;5.802;2023-12-29T08:01:10;100464.38;;;7.55;100.00
52535;BME280;38443;53.164;5.802;2023-12-29T08:03:35;100467.91;;;7.55;100.00
52535;BME280;38443;53.164;5.802;2023-12-29T08:06:01;100451.06;;;7.55;100.00
52535;BME280;38443;53.164;5.802;2023-12-29T08:08:26;100453.72;;;7.56;100.00
52535;BME280;38443;53.164;5.802;2023-12-29T08:10:51;100457.31;;;7.54;100.00
52535;BME280;38443;53.164;5.802;2023-12-29T08:13:16;100447.56;;;7.53;100.00
52535;BME280;38443;53.164;5.802;2023-12-29T08:15:42;100456.50;;;7.50;100.00
52535;BME280;38443;53.164;5.802;2023-12-29T08:18:08;100458.34;;;7.48;100.00
52535;BME280;38443;53.164;5.802;2023-12-29T08:20:33;100463.69;;;7.47;100.00
52535;BME280;38443;53.164;5.802;2023-12-29T08:22:58;100454.00;;;7.44;100.00
52535;BME280;38443;53.164;5.802;2023-12-29T08:25:23;100463.81;;;7.42;100.00
52535;BME280;38443;53.164;5.802;2023-12-29T08:27:49;100471.78;;;7.42;100.00
52535;BME280;38443;53.164;5.802;2023-12-29T08:30:14;100475.44;;;7.38;100.00
52535;BME280;38443;53.164;5.802;2023-12-29T08:32:39;100471.97;;;7.34;100.00
52535;BME280;38443;53.164;5.802;2023-12-29T08:35:04;100462.19;;;7.33;100.00
52535;BME280;38443;53.164;5.802;2023-12-29T08:37:31;100458.66;;;7.33;100.00
52535;BME280;38443;53.164;5.802;2023-12-29T08:39:58;100463.03;;;7.35;100.00
52535;BME280;38443;53.164;5.802;2023-12-29T08:42:23;100474.59;;;7.36;100.00
52535;BME280;38443;53.164;5.802;2023-12-29T08:44:49;100467.59;;;7.32;100.00
52535;BME280;38443;53.164;5.802;2023-12-29T08:47:14;100470.28;;;7.30;100.00
52535;BME280;38443;53.164;5.802;2023-12-29T08:49:39;100463.16;;;7.31;100.00
52535;BME280;38443;53.164;5.802;2023-12-29T08:52:06;100468.44;;;7.32;100.00
52535;BME280;38443;53.164;5.802;2023-12-29T08:54:31;100467.47;;;7.36;100.00
52535;BME280;38443;53.164;5.802;2023-12-29T08:56:56;100465.56;;;7.42;100.00
52535;BME280;38443;53.164;5.802;2023-12-29T08:59:21;100471.69;;;7.47;100.00
52535;BME280;38443;53.164;5.802;2023-12-29T09:01:46;100466.31;;;7.48;100.00
52535;BME280;38443;53.164;5.802;2023-12-29T09:04:12;100471.66;;;7.48;100.00
52535;BME280;38443;53.164;5.802;2023-12-29T09:06:37;100472.50;;;7.50;100.00
52535;BME280;38443;53.164;5.802;2023-12-29T09:09:02;100481.28;;;7.54;100.00
52535;BME280;38443;53.164;5.802;2023-12-29T09:13:05;100477.69;;;7.56;100.00
52535;BME280;38443;53.164;5.802;2023-12-29T09:15:31;100479.38;;;7.59;100.00
52535;BME280;38443;53.164;5.802;2023-12-29T09:17:57;100475.69;;;7.66;100.00
52535;BME280;38443;53.164;5.802;2023-12-29T09:20:23;100479.06;;;7.73;100.00
52535;BME280;38443;53.164;5.802;2023-12-29T09:22:48;100467.44;;;7.75;100.00
52535;BME280;38443;53.164;5.802;2023-12-29T09:25:13;100472.72;;;7.78;100.00
52535;BME280;38443;53.164;5.802;2023-12-29T09:27:39;100500.25;;;7.77;100.00
52535;BME280;38443;53.164;5.802;2023-12-29T09:30:04;100478.88;;;7.81;100.00
52535;BME280;38443;53.164;5.802;2023-12-29T09:32:30;100475.28;;;7.82;100.00
52535;BME280;38443;53.164;5.802;2023-12-29T09:34:55;100456.72;;;7.80;100.00
52535;BME280;38443;53.164;5.802;2023-12-29T09:37:22;100476.97;;;7.86;100.00
52535;BME280;38443;53.164;5.802;2023-12-29T09:39:47;100464.63;;;7.82;100.00
52535;BME280;38443;53.164;5.802;2023-12-29T09:42:13;100455.91;;;7.76;100.00
52535;BME280;38443;53.164;5.802;2023-12-29T09:44:42;100464.72;;;7.78;100.00
52535;BME280;38443;53.164;5.802;2023-12-29T09:47:11;100467.38;;;7.80;100.00
52535;BME280;38443;53.164;5.802;2023-12-29T09:49:38;100468.19;;;7.82;100.00
52535;BME280;38443;53.164;5.802;2023-12-29T09:52:07;100461.03;;;7.84;100.00
52535;BME280;38443;53.164;5.802;2023-12-29T09:54:35;100469.06;;;7.83;100.00
52535;BME280;38443;53.164;5.802;2023-12-29T09:57:02;100456.66;;;7.82;100.00
52535;BME280;38443;53.164;5.802;2023-12-29T09:59:29;100460.22;;;7.82;100.00
52535;BME280;38443;53.164;5.802;2023-12-29T10:01:54;100446.09;;;7.78;100.00
52535;BME280;38443;53.164;5.802;2023-12-29T10:04:21;100452.28;;;7.79;100.00
52535;BME280;38443;53.164;5.802;2023-12-29T10:06:48;100453.22;;;7.76;100.00
52535;BME280;38443;53.164;5.802;2023-12-29T10:09:16;100437.22;;;7.78;100.00
52535;BME280;38443;53.164;5.802;2023-12-29T10:11:42;100417.72;;;7.76;100.00
52535;BME280;38443;53.164;5.802;2023-12-29T10:14:21;100438.25;;;7.72;100.00
52535;BME280;38443;53.164;5.802;2023-12-29T10:17:01;100429.47;;;7.67;100.00
52535;BME280;38443;53.164;5.802;2023-12-29T10:19:40;100423.38;;;7.62;100.00
52535;BME280;38443;53.164;5.802;2023-12-29T10:22:11;100419.00;;;7.59;100.00
52535;BME280;38443;53.164;5.802;2023-12-29T10:24:41;100432.31;;;7.59;100.00
52535;BME280;38443;53.164;5.802;2023-12-29T10:27:08;100428.91;;;7.54;100.00
52535;BME280;38443;53.164;5.802;2023-12-29T10:29:34;100415.69;;;7.50;100.00
52535;BME280;38443;53.164;5.802;2023-12-29T10:31:59;100413.09;;;7.47;100.00
52535;BME280;38443;53.164;5.802;2023-12-29T10:34:25;100410.56;;;7.41;100.00
52535;BME280;38443;53.164;5.802;2023-12-29T10:37:01;100416.78;;;7.41;100.00
52535;BME280;38443;53.164;5.802;2023-12-29T10:39:28;100413.38;;;7.34;100.00
52535;BME280;38443;53.164;5.802;2023-12-29T10:42:27;100406.41;;;7.29;100.00
52535;BME280;38443;53.164;5.802;2023-12-29T10:44:45;100403.88;;;7.23;100.00
52535;BME280;38443;53.164;5.802;2023-12-29T10:47:11;100409.22;;;7.23;100.00
52535;BME280;38443;53.164;5.802;2023-12-29T10:49:37;100413.56;;;7.27;100.00
52535;BME280;38443;53.164;5.802;2023-12-29T10:52:13;100414.38;;;7.30;100.00
52535;BME280;38443;53.164;5.802;2023-12-29T10:54:44;100416.88;;;7.36;100.00
52535;BME280;38443;53.164;5.802;2023-12-29T10:57:12;100426.44;;;7.45;100.00
52535;BME280;38443;53.164;5.802;2023-12-29T10:59:39;100421.91;;;7.50;100.00
52535;BME280;38443;53.164;5.802;2023-12-29T11:02:04;100445.00;;;7.50;100.00
52535;BME280;38443;53.164;5.802;2023-12-29T11:04:29;100424.63;;;7.47;100.00
52535;BME280;38443;53.164;5.802;2023-12-29T11:06:55;100433.53;;;7.46;100.00
52535;BME280;38443;53.164;5.802;2023-12-29T11:09:28;100442.34;;;7.48;100.00
52535;BME280;38443;53.164;5.802;2023-12-29T11:11:59;100452.97;;;7.50;100.00
52535;BME280;38443;53.164;5.802;2023-12-29T11:14:25;100441.25;;;7.57;100.00
52535;BME280;38443;53.164;5.802;2023-12-29T11:16:51;100474.09;;;7.57;100.00
52535;BME280;38443;53.164;5.802;2023-12-29T11:19:18;100478.50;;;7.58;100.00
52535;BME280;38443;53.164;5.802;2023-12-29T11:21:44;100476.75;;;7.57;100.00
52535;BME280;38443;53.164;5.802;2023-12-29T11:24:09;100465.19;;;7.58;100.00
52535;BME280;38443;53.164;5.802;2023-12-29T11:26:35;100468.81;;;7.56;100.00
52535;BME280;38443;53.164;5.802;2023-12-29T11:29:01;100466.06;;;7.59;100.00
52535;BME280;38443;53.164;5.802;2023-12-29T11:31:26;100460.72;;;7.61;100.00
52535;BME280;38443;53.164;5.802;2023-12-29T11:33:57;100458.91;;;7.61;100.00
52535;BME280;38443;53.164;5.802;2023-12-29T11:36:30;100463.22;;;7.67;100.00
52535;BME280;38443;53.164;5.802;2023-12-29T11:39:06;100474.69;;;7.70;100.00
52535;BME280;38443;53.164;5.802;2023-12-29T11:42:40;100466.59;;;7.75;100.00
52535;BME280;38443;53.164;5.802;2023-12-29T11:44:40;100466.44;;;7.81;100.00
52535;BME280;38443;53.164;5.802;2023-12-29T11:47:06;100442.47;;;7.81;100.00
52535;BME280;38443;53.164;5.802;2023-12-29T11:50:01;100440.56;;;7.86;100.00
52535;BME280;38443;53.164;5.802;2023-12-29T11:52:37;100461.88;;;7.86;100.00
52535;BME280;38443;53.164;5.802;2023-12-29T11:55:11;100451.19;;;7.88;100.00
52535;BME280;38443;53.164;5.802;2023-12-29T11:57:36;100434.41;;;7.84;100.00
52535;BME280;38443;53.164;5.802;2023-12-29T12:00:04;100443.38;;;7.80;100.00
52535;BME280;38443;53.164;5.802;2023-12-29T12:02:30;100446.28;;;7.69;100.00
52535;BME280;38443;53.164;5.802;2023-12-29T12:04:56;100444.00;;;7.54;100.00
52535;BME280;38443;53.164;5.802;2023-12-29T12:09:47;100456.78;;;7.38;100.00
52535;BME280;38443;53.164;5.802;2023-12-29T12:12:40;100466.69;;;7.31;100.00
52535;BME280;38443;53.164;5.802;2023-12-29T12:17:57;100465.81;;;7.31;100.00
52535;BME280;38443;53.164;5.802;2023-12-29T12:20:23;100473.78;;;7.32;100.00
52535;BME280;38443;53.164;5.802;2023-12-29T12:25:33;100479.41;;;7.18;100.00
52535;BME280;38443;53.164;5.802;2023-12-29T12:28:06;100473.28;;;7.13;100.00
52535;BME280;38443;53.164;5.802;2023-12-29T12:30:33;100497.34;;;7.09;100.00
52535;BME280;38443;53.164;5.802;2023-12-29T12:33:03;100501.81;;;7.07;100.00
52535;BME280;38443;53.164;5.802;2023-12-29T12:35:29;100500.06;;;7.06;100.00
52535;BME280;38443;53.164;5.802;2023-12-29T12:38:08;100501.94;;;7.01;100.00
52535;BME280;38443;53.164;5.802;2023-12-29T12:40:34;100508.16;;;6.99;100.00
52535;BME280;38443;53.164;5.802;2023-12-29T12:42:59;100510.03;;;6.96;100.00
52535;BME280;38443;53.164;5.802;2023-12-29T12:45:25;100504.72;;;6.94;100.00
52535;BME280;38443;53.164;5.802;2023-12-29T12:47:55;100506.53;;;6.94;100.00
52535;BME280;38443;53.164;5.802;2023-12-29T12:50:24;100500.28;;;6.95;100.00
52535;BME280;38443;53.164;5.802;2023-12-29T12:52:49;100502.06;;;6.94;100.00
52535;BME280;38443;53.164;5.802;2023-12-29T12:55:15;100504.69;;;6.96;100.00
52535;BME280;38443;53.164;5.802;2023-12-29T12:57:41;100507.31;;;6.97;100.00
52535;BME280;38443;53.164;5.802;2023-12-29T13:00:06;100504.72;;;6.94;100.00